createdAt,value
2019-04-06T00:02:26.525Z,39.88
2019-04-06T00:07:32.359Z,39.13
2019-04-06T00:12:37.691Z,39.90
2019-04-06T00:17:43.409Z,39.60
2019-04-06T00:22:48.954Z,39.08
2019-04-06T00:27:54.308Z,38.73
2019-04-06T00:33:11.135Z,39.78
2019-04-06T00:38:16.940Z,39.83
2019-04-06T00:43:22.461Z,39.42
2019-04-06T00:48:28.158Z,38.65
2019-04-06T00:53:33.546Z,40.08
2019-04-06T00:58:38.854Z,39.67
2019-04-06T01:03:44.067Z,41.40
2019-04-06T01:08:49.452Z,40.23
2019-04-06T01:13:55.169Z,42.10
2019-04-06T01:19:00.794Z,42.60
2019-04-06T01:24:06.244Z,41.47
2019-04-06T01:29:11.606Z,41.35
2019-04-06T01:34:16.884Z,42.17
2019-04-06T01:39:22.258Z,42.58
2019-04-06T01:44:27.869Z,42.03
2019-04-06T01:49:33.282Z,43.00
2019-04-06T01:54:39.082Z,41.90
2019-04-06T01:59:44.503Z,41.53
2019-04-06T02:04:49.846Z,42.62
2019-04-06T02:09:55.092Z,41.98
2019-04-06T02:15:00.451Z,42.13
2019-04-06T02:20:06.509Z,40.75
2019-04-06T02:25:12.157Z,42.08
2019-04-06T02:30:33.148Z,43.00
2019-04-06T02:35:57.636Z,43.70
2019-04-06T02:41:08.946Z,43.30
2019-04-06T02:46:14.887Z,44.35
2019-04-06T02:51:20.482Z,42.20
2019-04-06T02:56:26.142Z,41.80
2019-04-06T03:01:31.798Z,43.37
2019-04-06T03:06:38.036Z,43.40
2019-04-06T03:11:43.302Z,42.45
2019-04-06T03:16:48.676Z,43.15
2019-04-06T03:21:53.948Z,45.20
2019-04-06T03:27:02.446Z,45.03
2019-04-06T03:32:06.374Z,45.03
2019-04-06T03:37:12.083Z,44.75
2019-04-06T03:42:17.498Z,44.48
2019-04-06T03:47:22.780Z,44.30
2019-04-06T03:52:28.390Z,43.83
2019-04-06T03:57:33.871Z,43.27
2019-04-06T04:02:39.181Z,44.95
2019-04-06T04:07:45.769Z,45.00
2019-04-06T04:12:51.468Z,44.67
2019-04-06T04:17:57.166Z,45.45
2019-04-06T04:23:02.618Z,43.40
2019-04-06T04:28:07.987Z,43.47
2019-04-06T04:33:13.450Z,42.27
2019-04-06T04:38:18.771Z,42.63
2019-04-06T04:43:24.071Z,41.70
2019-04-06T04:48:29.508Z,39.60
2019-04-06T04:53:35.043Z,42.25
2019-04-06T04:58:40.350Z,42.60
2019-04-06T05:03:45.791Z,42.75
2019-04-06T05:08:50.997Z,43.75
2019-04-06T05:14:32.583Z,43.28
2019-04-06T05:19:38.016Z,42.98
2019-04-06T05:24:43.332Z,43.17
2019-04-06T05:29:48.864Z,42.03
2019-04-06T05:34:54.176Z,40.98
2019-04-06T05:39:59.390Z,43.05
2019-04-06T05:45:04.949Z,42.00
2019-04-06T05:50:10.326Z,40.17
2019-04-06T05:55:15.818Z,42.10
2019-04-06T06:00:21.108Z,42.25
2019-04-06T06:05:26.681Z,42.50
2019-04-06T06:10:32.150Z,42.00
2019-04-06T06:15:38.470Z,41.68
2019-04-06T06:20:44.958Z,42.90
2019-04-06T06:25:50.382Z,41.95
2019-04-06T06:30:56.074Z,42.53
2019-04-06T06:36:01.613Z,41.88
2019-04-06T06:41:07.115Z,40.50
2019-04-06T06:46:12.407Z,39.33
2019-04-06T06:51:17.814Z,38.25
2019-04-06T06:56:23.246Z,38.20
2019-04-06T07:01:28.999Z,37.47
2019-04-06T07:06:34.237Z,38.45
2019-04-06T07:11:39.520Z,38.40
2019-04-06T07:16:45.017Z,37.00
2019-04-06T07:21:50.354Z,37.87
2019-04-06T07:26:56.817Z,37.30
2019-04-06T07:32:02.214Z,35.90
2019-04-06T07:37:07.723Z,36.25
2019-04-06T07:42:13.128Z,34.30
2019-04-06T07:47:18.724Z,34.78
2019-04-06T07:52:24.163Z,33.92
2019-04-06T07:57:29.728Z,34.00
2019-04-06T08:02:35.304Z,34.15
2019-04-06T08:07:40.645Z,33.98
2019-04-06T08:12:46.156Z,35.08
2019-04-06T08:17:52.997Z,34.85
2019-04-06T08:22:59.282Z,37.83
2019-04-06T08:28:05.526Z,34.55
2019-04-06T08:33:11.340Z,34.08
2019-04-06T08:38:17.044Z,34.78
2019-04-06T08:43:24.043Z,36.27
2019-04-06T08:48:29.358Z,36.08
2019-04-06T08:53:34.799Z,35.30
2019-04-06T08:58:40.672Z,34.83
2019-04-06T09:03:46.003Z,35.10
2019-04-06T09:08:51.691Z,34.63
2019-04-06T09:13:58.423Z,34.03
2019-04-06T09:19:04.161Z,33.70
2019-04-06T09:24:09.747Z,33.83
2019-04-06T09:29:23.178Z,31.82
2019-04-06T09:34:22.476Z,31.50
2019-04-06T09:39:27.930Z,31.33
2019-04-06T09:44:52.217Z,30.30
2019-04-06T09:50:15.516Z,29.80
2019-04-06T09:55:46.359Z,30.25
2019-04-06T10:00:58.892Z,30.47
2019-04-06T10:06:32.564Z,28.85
2019-04-06T10:12:15.124Z,29.72
2019-04-06T10:17:50.862Z,29.77
2019-04-06T10:23:17.948Z,31.12
2019-04-06T10:28:41.189Z,28.90
2019-04-06T10:33:57.475Z,29.32
2019-04-06T10:39:35.855Z,28.92
2019-04-06T10:45:00.471Z,29.37
2019-04-06T10:50:27.933Z,29.05
2019-04-06T10:55:53.031Z,28.70
2019-04-06T11:01:16.322Z,28.77
2019-04-06T11:06:47.253Z,29.12
2019-04-06T11:12:10.703Z,29.35
2019-04-06T11:17:38.560Z,29.25
2019-04-06T11:23:02.357Z,28.07
2019-04-06T11:28:21.187Z,27.82
2019-04-06T11:34:00.598Z,28.65
2019-04-06T11:39:37.586Z,30.08
2019-04-06T11:45:06.678Z,27.87
2019-04-06T11:50:38.060Z,27.98
2019-04-06T11:56:18.891Z,28.42
2019-04-06T12:01:36.461Z,28.67
2019-04-06T12:07:05.024Z,28.67
2019-04-06T12:12:20.549Z,28.98
2019-04-06T12:17:48.283Z,28.00
2019-04-06T12:23:00.480Z,28.38
2019-04-06T12:28:16.668Z,28.05
2019-04-06T12:33:39.861Z,28.62
2019-04-06T12:38:55.070Z,28.67
2019-04-06T12:44:18.209Z,27.75
2019-04-06T12:50:01.561Z,28.07
2019-04-06T12:55:29.619Z,30.40
2019-04-06T13:00:54.390Z,28.97
2019-04-06T13:06:11.320Z,28.62
2019-04-06T13:11:32.209Z,28.67
2019-04-06T13:16:43.563Z,29.18
2019-04-06T13:22:13.021Z,29.95
2019-04-06T13:27:25.280Z,26.82
2019-04-06T13:32:40.788Z,26.33
2019-04-06T13:38:05.410Z,25.65
2019-04-06T13:43:17.719Z,24.20
2019-04-06T13:49:01.188Z,23.90
2019-04-06T13:54:18.369Z,25.10
2019-04-06T13:59:33.129Z,24.23
2019-04-06T14:04:48.015Z,24.65
2019-04-06T14:10:09.325Z,24.17
2019-04-06T14:15:32.519Z,22.97
2019-04-06T14:20:55.812Z,21.48
2019-04-06T14:26:18.943Z,22.27
2019-04-06T14:31:52.358Z,21.20
2019-04-06T14:37:20.469Z,20.25
2019-04-06T14:42:37.746Z,20.50
2019-04-06T14:48:02.037Z,19.00
2019-04-06T14:53:14.905Z,18.48
2019-04-06T14:58:58.226Z,20.32
2019-04-06T15:04:23.512Z,19.55
2019-04-06T15:09:46.368Z,19.90
2019-04-06T15:15:11.773Z,20.72
2019-04-06T15:20:39.986Z,21.60
2019-04-06T15:25:54.913Z,20.88
2019-04-06T15:31:06.625Z,19.62
2019-04-06T15:36:20.921Z,20.62
2019-04-06T15:42:03.738Z,20.97
2019-04-06T15:47:22.594Z,20.17
2019-04-06T15:52:55.965Z,19.50
2019-04-06T15:58:07.787Z,20.17
2019-04-06T16:03:26.216Z,20.12
2019-04-06T16:08:41.183Z,19.73
2019-04-06T16:14:04.271Z,19.87
2019-04-06T16:19:20.984Z,19.37
2019-04-06T16:24:38.753Z,19.37
2019-04-06T16:30:12.007Z,19.43
2019-04-06T16:35:43.809Z,20.05
2019-04-06T16:41:23.444Z,20.95
2019-04-06T16:46:53.798Z,20.00
2019-04-06T16:52:20.333Z,19.32
2019-04-06T16:57:45.575Z,20.10
2019-04-06T17:03:18.770Z,19.73
2019-04-06T17:08:46.953Z,20.10
2019-04-06T17:14:13.453Z,21.37
2019-04-06T17:19:37.440Z,21.47
2019-04-06T17:25:02.982Z,21.25
2019-04-06T17:30:15.845Z,21.33
2019-04-06T17:35:45.214Z,19.90
2019-04-06T17:41:00.388Z,19.73
2019-04-06T17:46:23.378Z,21.05
2019-04-06T17:51:37.630Z,20.92
2019-04-06T17:56:54.106Z,22.32
2019-04-06T18:02:30.308Z,22.40
2019-04-06T18:08:03.828Z,20.95
2019-04-06T18:13:34.483Z,21.33
2019-04-06T18:18:40.109Z,22.73
2019-04-06T18:23:46.146Z,20.55
2019-04-06T18:28:51.595Z,21.12
2019-04-06T18:33:56.968Z,20.70
2019-04-06T18:39:07.190Z,20.05
2019-04-06T18:44:12.991Z,20.60
2019-04-06T18:49:18.369Z,19.90
2019-04-06T18:54:24.707Z,20.23
2019-04-06T18:59:29.947Z,20.75
2019-04-06T19:04:35.347Z,20.90
2019-04-06T19:09:41.828Z,22.10
2019-04-06T19:14:47.403Z,25.02
2019-04-06T19:19:52.694Z,23.25
2019-04-06T19:24:58.032Z,21.95
2019-04-06T19:30:04.840Z,23.30
2019-04-06T19:35:10.875Z,26.35
2019-04-06T19:40:16.392Z,25.43
2019-04-06T19:45:23.746Z,25.90
2019-04-06T19:50:29.028Z,23.65
2019-04-06T19:55:35.690Z,22.73
2019-04-06T20:00:41.315Z,22.97
2019-04-06T20:05:47.349Z,21.60
2019-04-06T20:10:53.142Z,18.45
2019-04-06T20:15:58.750Z,21.65
2019-04-06T20:21:04.068Z,21.35
2019-04-06T20:26:09.366Z,19.35
2019-04-06T20:31:14.879Z,19.90
2019-04-06T20:36:20.463Z,20.15
2019-04-06T20:41:26.148Z,22.17
2019-04-06T20:46:32.016Z,21.90
2019-04-06T20:51:39.261Z,22.37
2019-04-06T20:56:53.908Z,23.75
2019-04-06T21:01:52.185Z,24.82
2019-04-06T21:06:57.712Z,24.52
2019-04-06T21:12:03.722Z,24.52
2019-04-06T21:17:09.593Z,24.20
2019-04-06T21:22:15.019Z,29.27
2019-04-06T21:27:20.396Z,32.13
2019-04-06T21:32:26.120Z,30.48
2019-04-06T21:37:31.539Z,33.57
2019-04-06T21:42:37.634Z,30.02
2019-04-06T21:47:43.339Z,26.90
2019-04-06T21:52:49.686Z,25.40
2019-04-06T21:57:55.352Z,25.47
2019-04-06T22:03:01.628Z,25.10
2019-04-06T22:08:07.369Z,23.50
2019-04-06T22:13:13.196Z,24.02
2019-04-06T22:18:19.330Z,24.77
2019-04-06T22:23:25.228Z,23.30
2019-04-06T22:28:31.110Z,22.57
2019-04-06T22:33:36.505Z,24.50
2019-04-06T22:38:42.123Z,22.85
2019-04-06T22:43:47.883Z,22.70
2019-04-06T22:48:53.183Z,21.80
2019-04-06T22:53:58.619Z,23.77
2019-04-06T22:59:03.912Z,27.55
2019-04-06T23:04:45.735Z,28.12
2019-04-06T23:09:41.697Z,26.90
2019-04-06T23:14:47.770Z,27.47
2019-04-06T23:19:53.555Z,23.80
2019-04-06T23:24:59.031Z,24.67
2019-04-06T23:30:05.072Z,25.43
2019-04-06T23:35:10.807Z,25.72
2019-04-06T23:40:16.798Z,24.65
2019-04-06T23:45:23.532Z,22.32
2019-04-06T23:50:29.391Z,23.92
2019-04-06T23:55:35.344Z,24.72
